Time;durP1;ratioP1;P1;durP2;ratioP2;P2;SDS_P1;SDS_P2;PMS_P1;PMS_P2;Temp;Humidity;BMP_temperature;BMP_pressure;BME280_temperature;BME280_humidity;BME280_pressure;Samples;Min_cycle;Max_cycle;Signal;HPM_P1;HPM_P2
2021/06/07 00:01:55;;;;;;;21.63;18.05;;;19.60;99.90;;;;;;5052932;28;20029;-70
2021/06/07 00:04:22;;;;;;;20.58;17.77;;;19.50;99.90;;;;;;5052960;28;20393;-69
2021/06/07 00:06:47;;;;;;;28.55;18.88;;;19.50;99.90;;;;;;5053185;28;20055;-71
2021/06/07 00:09:15;;;;;;;23.38;17.60;;;19.50;99.90;;;;;;5051824;28;20540;-72
2021/06/07 00:11:45;;;;;;;23.23;18.17;;;19.50;99.90;;;;;;5051746;28;20048;-72
2021/06/07 00:14:12;;;;;;;18.73;16.35;;;19.60;99.90;;;;;;5053057;28;20377;-71
2021/06/07 00:16:38;;;;;;;24.45;18.23;;;19.50;99.90;;;;;;5053262;28;20112;-71
2021/06/07 00:19:16;;;;;;;21.45;16.90;;;19.50;99.90;;;;;;5052679;28;20465;-72
2021/06/07 00:21:43;;;;;;;21.45;17.35;;;19.50;99.90;;;;;;5053002;28;20025;-72
2021/06/07 00:24:11;;;;;;;25.83;18.08;;;19.50;99.90;;;;;;5051287;28;20064;-72
2021/06/07 00:26:37;;;;;;;23.67;18.13;;;19.60;99.90;;;;;;5051627;28;20029;-71
2021/06/07 00:29:04;;;;;;;22.35;18.20;;;19.50;99.90;;;;;;5052909;28;20021;-72
2021/06/07 00:31:30;;;;;;;23.13;18.48;;;19.50;99.90;;;;;;5051475;28;20056;-72
2021/06/07 00:33:56;;;;;;;21.90;18.08;;;19.50;99.90;;;;;;5053207;28;20025;-71
2021/06/07 00:36:22;;;;;;;24.85;17.98;;;19.50;99.90;;;;;;5052799;28;20028;-71
2021/06/07 00:38:49;;;;;;;22.95;17.58;;;19.50;99.90;;;;;;5052813;28;20025;-71
2021/06/07 00:41:16;;;;;;;23.73;18.73;;;19.40;99.90;;;;;;5051483;28;20067;-72
2021/06/07 00:43:43;;;;;;;22.27;17.77;;;19.40;99.90;;;;;;5053936;28;20056;-72
2021/06/07 00:46:09;;;;;;;22.75;17.23;;;19.50;99.90;;;;;;5055495;28;20021;-71
2021/06/07 00:48:36;;;;;;;24.70;19.42;;;19.40;99.90;;;;;;5056486;28;20428;-72
2021/06/07 00:51:08;;;;;;;24.98;18.73;;;19.50;99.90;;;;;;5056315;28;20401;-72
2021/06/07 00:53:34;;;;;;;23.65;19.15;;;19.40;99.90;;;;;;5055421;28;20044;-73
2021/06/07 00:56:04;;;;;;;25.88;19.83;;;19.40;99.90;;;;;;5056628;28;20029;-73
2021/06/07 00:58:35;;;;;;;22.88;18.98;;;19.40;99.90;;;;;;5056564;28;20347;-72
2021/06/07 01:01:02;;;;;;;;;;;19.40;99.90;;;;;;5056916;28;20120;-73
2021/06/07 01:03:30;;;;;;;28.30;18.55;;;19.40;99.90;;;;;;5055174;28;19909;-74
2021/06/07 01:05:56;;;;;;;23.02;17.95;;;19.40;99.90;;;;;;5055105;28;20474;-74
2021/06/07 01:08:24;;;;;;;22.65;18.20;;;19.40;99.90;;;;;;5055086;28;20029;-74
2021/06/07 01:10:51;;;;;;;28.85;19.33;;;19.40;99.90;;;;;;5054915;28;20040;-72
2021/06/07 01:13:19;;;;;;;20.85;17.92;;;19.40;99.90;;;;;;5054990;28;20033;-72
2021/06/07 01:15:46;;;;;;;30.17;19.40;;;19.30;99.90;;;;;;5056243;28;20082;-72
2021/06/07 01:18:15;;;;;;;25.75;19.45;;;19.30;99.90;;;;;;5056214;28;20025;-72
2021/06/07 01:20:41;;;;;;;26.20;19.33;;;19.30;99.90;;;;;;5054795;28;20029;-72
2021/06/07 01:23:07;;;;;;;24.77;19.38;;;19.20;99.90;;;;;;5056201;28;20028;-71
2021/06/07 01:25:36;;;;;;;24.15;19.10;;;19.20;99.90;;;;;;5056133;28;20474;-72
2021/06/07 01:28:08;;;;;;;24.52;18.77;;;19.20;99.90;;;;;;5054703;28;20120;-72
2021/06/07 01:30:37;;;;;;;24.60;19.20;;;19.10;99.90;;;;;;5054667;28;20033;-74
2021/06/07 01:33:06;;;;;;;22.95;18.33;;;19.10;99.90;;;;;;5055962;28;20087;-72
2021/06/07 01:35:33;;;;;;;27.05;19.92;;;19.10;99.90;;;;;;5054567;28;20047;-71
2021/06/07 01:37:59;;;;;;;26.08;19.50;;;19.10;99.90;;;;;;5054544;28;20083;-72
2021/06/07 01:40:31;;;;;;;27.73;19.05;;;19.00;99.90;;;;;;5055779;28;20120;-72
2021/06/07 01:42:58;;;;;;;25.90;18.88;;;19.00;99.90;;;;;;5055884;28;20021;-73
2021/06/07 01:45:26;;;;;;;28.10;19.70;;;19.00;99.90;;;;;;5054399;28;20025;-71
2021/06/07 01:47:54;;;;;;;28.63;19.88;;;18.90;99.90;;;;;;5055967;28;20028;-70
2021/06/07 01:50:20;;;;;;;27.80;18.77;;;19.00;99.90;;;;;;5055565;28;20048;-71
2021/06/07 01:52:48;;;;;;;29.08;19.63;;;19.00;99.90;;;;;;5054032;28;20029;-71
2021/06/07 01:55:16;;;;;;;28.50;19.38;;;19.00;99.90;;;;;;5053564;28;20028;-72
2021/06/07 01:57:43;;;;;;;30.85;20.50;;;19.00;99.90;;;;;;5055790;28;20473;-72
2021/06/07 02:00:35;;;;;;;26.67;20.45;;;18.90;99.90;;;;;;5054100;28;20028;-71
2021/06/07 02:03:01;;;;;;;25.50;19.10;;;18.90;99.90;;;;;;5054148;28;20066;-72
2021/06/07 02:05:29;;;;;;;28.70;19.67;;;18.80;99.90;;;;;;5055387;28;20470;-71
2021/06/07 02:07:58;;;;;;;27.08;19.65;;;18.90;99.90;;;;;;5055298;28;20032;-72
2021/06/07 02:10:34;;;;;;;26.30;18.50;;;18.80;99.90;;;;;;5054850;28;20381;-73
2021/06/07 02:13:00;;;;;;;33.63;20.42;;;18.80;99.90;;;;;;5055274;28;20458;-73
2021/06/07 02:15:26;;;;;;;26.42;20.00;;;18.80;99.90;;;;;;5053831;28;20029;-72
2021/06/07 02:17:52;;;;;;;23.08;18.52;;;18.80;99.90;;;;;;5054782;28;20457;-72
2021/06/07 02:20:22;;;;;;;29.92;20.05;;;18.80;99.90;;;;;;5053715;28;20036;-73
2021/06/07 02:22:48;;;;;;;21.90;18.98;;;18.80;99.90;;;;;;5055053;28;20025;-72
2021/06/07 02:25:17;;;;;;;25.35;20.80;;;18.80;99.90;;;;;;5053227;28;20052;-73
2021/06/07 02:27:43;;;;;;;26.67;20.02;;;18.80;99.90;;;;;;5054593;28;20108;-70
2021/06/07 02:30:13;;;;;;;26.75;20.25;;;18.80;99.90;;;;;;5054777;28;20032;-70
2021/06/07 02:32:40;;;;;;;25.77;20.13;;;18.80;99.90;;;;;;5053425;28;20033;-71
2021/06/07 02:35:08;;;;;;;28.52;20.40;;;18.80;99.90;;;;;;5054648;28;20046;-71
2021/06/07 02:37:34;;;;;;;30.08;20.45;;;18.80;99.90;;;;;;5054445;28;20070;-70
2021/06/07 02:40:01;;;;;;;29.08;20.30;;;18.80;99.90;;;;;;5054700;28;20021;-70
2021/06/07 02:42:27;;;;;;;26.73;20.48;;;18.80;99.90;;;;;;5054617;28;20104;-71
2021/06/07 02:44:53;;;;;;;29.48;18.98;;;18.80;99.90;;;;;;5053294;28;20045;-72
2021/06/07 02:47:18;;;;;;;26.13;19.55;;;18.80;99.90;;;;;;5053256;28;20024;-72
2021/06/07 02:49:44;;;;;;;25.63;19.08;;;18.80;99.90;;;;;;5054771;28;20462;-72
2021/06/07 02:52:10;;;;;;;27.50;20.50;;;18.80;99.90;;;;;;5053054;28;20067;-71
2021/06/07 02:54:36;;;;;;;27.38;19.65;;;18.80;99.90;;;;;;5054484;28;20033;-71
2021/06/07 02:57:03;;;;;;;24.67;19.88;;;18.70;99.90;;;;;;5054439;28;20028;-71
2021/06/07 02:59:29;;;;;;;26.67;20.08;;;18.70;99.90;;;;;;5054303;28;20078;-71
2021/06/07 03:01:55;;;;;;;27.27;21.42;;;18.70;99.90;;;;;;5054302;28;20037;-72
2021/06/07 03:04:21;;;;;;;26.85;20.52;;;18.70;99.90;;;;;;5054519;28;20041;-72
2021/06/07 03:06:47;;;;;;;28.92;20.33;;;18.70;99.90;;;;;;5053169;28;20052;-73
2021/06/07 03:09:13;;;;;;;33.17;21.42;;;18.70;99.90;;;;;;5054065;28;20025;-72
2021/06/07 03:11:39;;;;;;;25.05;20.13;;;18.70;99.90;;;;;;5054148;28;20032;-73
2021/06/07 03:14:04;;;;;;;30.38;21.20;;;18.70;99.90;;;;;;5052721;28;20028;-72
2021/06/07 03:16:30;;;;;;;30.35;21.80;;;18.80;99.90;;;;;;5052097;28;20029;-71
2021/06/07 03:18:56;;;;;;;29.15;20.02;;;18.80;99.90;;;;;;5053939;28;20036;-71
2021/06/07 03:21:22;;;;;;;23.60;19.25;;;18.80;99.90;;;;;;5053877;28;20033;-71
2021/06/07 03:23:48;;;;;;;30.98;20.58;;;18.90;99.90;;;;;;5053676;28;20053;-72
2021/06/07 03:26:14;;;;;;;30.27;20.15;;;18.90;99.90;;;;;;5053478;28;20385;-71
2021/06/07 03:28:40;;;;;;;29.33;21.63;;;18.90;99.90;;;;;;5052436;28;20025;-71
2021/06/07 03:31:07;;;;;;;28.45;19.77;;;18.90;99.90;;;;;;5052272;28;20090;-71
2021/06/07 03:33:34;;;;;;;30.40;20.52;;;18.90;99.90;;;;;;5053755;28;20037;-71
2021/06/07 03:36:00;;;;;;;27.30;20.52;;;19.00;99.90;;;;;;5053917;28;20474;-71
2021/06/07 03:38:27;;;;;;;27.63;20.00;;;18.90;99.90;;;;;;5052251;28;20025;-71
2021/06/07 03:40:56;;;;;;;32.83;20.85;;;18.90;99.90;;;;;;5053531;28;20120;-72
2021/06/07 03:43:24;;;;;;;32.72;21.73;;;19.00;99.90;;;;;;5053562;28;20094;-71
2021/06/07 03:45:50;;;;;;;28.33;20.08;;;19.00;99.90;;;;;;5053563;28;20492;-71
2021/06/07 03:48:16;;;;;;;25.50;19.73;;;19.00;99.90;;;;;;5053451;28;20021;-71
2021/06/07 03:50:42;;;;;;;25.05;20.40;;;19.00;99.90;;;;;;5050105;28;20033;-71
2021/06/07 03:53:09;;;;;;;26.73;20.55;;;19.00;99.90;;;;;;5051553;28;20244;-72
2021/06/07 03:55:36;;;;;;;25.77;19.23;;;19.00;99.90;;;;;;5053207;28;20036;-73
2021/06/07 03:58:03;;;;;;;32.05;20.08;;;19.10;99.90;;;;;;5053307;28;20025;-72
2021/06/07 04:00:31;;;;;;;28.92;20.00;;;19.10;99.90;;;;;;5053205;28;20027;-72
2021/06/07 04:02:57;;;;;;;27.25;21.50;;;19.10;99.90;;;;;;5053148;28;20035;-72
2021/06/07 04:05:24;;;;;;;28.80;19.80;;;19.20;99.90;;;;;;5053204;28;20025;-72
2021/06/07 04:07:50;;;;;;;28.90;19.67;;;19.20;99.90;;;;;;5052821;28;20021;-72
2021/06/07 04:10:19;;;;;;;23.60;18.15;;;19.20;99.90;;;;;;5051694;28;20059;-73
2021/06/07 04:12:46;;;;;;;26.45;20.23;;;19.30;99.90;;;;;;5053061;28;20021;-72
2021/06/07 04:15:15;;;;;;;27.50;19.92;;;19.30;99.90;;;;;;5053060;28;20032;-72
2021/06/07 04:17:41;;;;;;;27.98;19.73;;;19.40;99.90;;;;;;5052676;28;20576;-73
2021/06/07 04:20:12;;;;;;;23.75;18.58;;;19.50;99.90;;;;;;5052953;28;20116;-72
2021/06/07 04:22:43;;;;;;;23.85;19.42;;;19.50;99.90;;;;;;5052974;28;20060;-72
2021/06/07 04:25:10;;;;;;;22.83;18.27;;;19.60;99.90;;;;;;5051133;28;20053;-75
2021/06/07 04:27:38;;;;;;;25.67;18.67;;;19.70;99.90;;;;;;5051597;28;20021;-73
2021/06/07 04:30:10;;;;;;;25.23;18.08;;;19.80;99.90;;;;;;5052878;28;20117;-72
2021/06/07 04:32:37;;;;;;;22.90;18.80;;;19.90;99.90;;;;;;5052551;28;20493;-72
2021/06/07 04:35:06;;;;;;;24.08;18.45;;;20.10;99.90;;;;;;5051588;28;20033;-73
2021/06/07 04:37:39;;;;;;;22.67;18.95;;;20.20;99.90;;;;;;5052757;28;20017;-72
2021/06/07 04:40:05;;;;;;;24.63;18.65;;;20.20;99.90;;;;;;5051551;28;20029;-72
2021/06/07 04:42:31;;;;;;;23.17;19.15;;;20.30;99.90;;;;;;5051408;28;20122;-72
2021/06/07 04:44:57;;;;;;;25.88;17.58;;;20.40;99.90;;;;;;5051434;28;20041;-72
2021/06/07 04:47:23;;;;;;;23.15;17.85;;;20.40;99.90;;;;;;5051633;28;20029;-72
2021/06/07 04:49:49;;;;;;;23.73;17.70;;;20.40;99.90;;;;;;5051358;28;20083;-71
2021/06/07 04:52:15;;;;;;;21.65;17.25;;;20.40;99.90;;;;;;5052599;28;20029;-72
2021/06/07 04:54:41;;;;;;;22.00;16.98;;;20.60;99.90;;;;;;5051415;28;20377;-71
2021/06/07 04:57:07;;;;;;;21.25;17.27;;;20.70;99.90;;;;;;5052683;28;20104;-71
2021/06/07 04:59:33;;;;;;;19.13;16.45;;;20.70;99.90;;;;;;5052478;28;20029;-72
2021/06/07 05:01:59;;;;;;;20.42;15.77;;;20.70;99.90;;;;;;5052218;28;20036;-72
2021/06/07 05:04:25;;;;;;;18.30;16.10;;;20.80;99.90;;;;;;5051109;28;20029;-72
2021/06/07 05:06:51;;;;;;;19.27;16.80;;;;;;;;;;5052378;28;20032;-71
2021/06/07 05:09:17;;;;;;;23.05;15.32;;;20.90;99.90;;;;;;5051058;28;20457;-71
2021/06/07 05:11:43;;;;;;;21.77;15.98;;;20.80;99.90;;;;;;5052070;28;20071;-71
2021/06/07 05:14:08;;;;;;;17.77;15.35;;;20.90;99.90;;;;;;5051659;28;20021;-72
2021/06/07 05:16:34;;;;;;;19.30;14.90;;;21.00;99.90;;;;;;5052040;28;20389;-71
2021/06/07 05:19:00;;;;;;;20.02;14.95;;;21.10;99.90;;;;;;5052477;28;20111;-72
2021/06/07 05:21:26;;;;;;;21.63;14.27;;;21.20;99.90;;;;;;5050951;28;20064;-73
2021/06/07 05:23:52;;;;;;;15.68;14.07;;;21.40;99.90;;;;;;5051734;28;20053;-71
2021/06/07 05:26:18;;;;;;;16.48;12.88;;;21.50;99.90;;;;;;5051621;28;20053;-72
2021/06/07 05:28:44;;;;;;;16.23;14.43;;;21.60;99.90;;;;;;5052511;28;20021;-73
2021/06/07 05:31:10;;;;;;;20.13;14.57;;;21.70;99.90;;;;;;5054916;28;20476;-73
2021/06/07 05:33:36;;;;;;;18.95;13.43;;;21.70;99.90;;;;;;5052952;28;20041;-71
2021/06/07 05:36:01;;;;;;;18.50;13.50;;;21.90;99.90;;;;;;5054327;28;20100;-71
2021/06/07 05:38:27;;;;;;;15.20;12.40;;;21.80;99.90;;;;;;5055450;28;20049;-73
2021/06/07 05:40:54;;;;;;;14.38;12.57;;;21.90;99.90;;;;;;5055725;28;20112;-72
2021/06/07 05:43:23;;;;;;;20.55;13.63;;;21.90;99.90;;;;;;5054203;28;20116;-72
2021/06/07 05:45:51;;;;;;;21.75;14.25;;;21.80;99.90;;;;;;5055570;28;20025;-71
2021/06/07 05:48:16;;;;;;;16.23;13.25;;;21.80;99.90;;;;;;5055311;28;20408;-72
2021/06/07 05:50:43;;;;;;;15.48;12.93;;;21.70;99.90;;;;;;5055435;28;20039;-72
2021/06/07 05:53:11;;;;;;;14.98;13.30;;;21.80;99.90;;;;;;5054742;28;20105;-72
2021/06/07 05:55:40;;;;;;;17.67;14.35;;;21.80;99.90;;;;;;5053257;28;20035;-73
2021/06/07 05:58:12;;;;;;;15.85;13.70;;;21.90;99.90;;;;;;5053246;28;20059;-72
2021/06/07 06:00:41;;;;;;;18.65;14.23;;;22.00;99.90;;;;;;5054781;28;20025;-73
2021/06/07 06:03:07;;;;;;;15.73;13.02;;;22.00;99.90;;;;;;5053540;28;20025;-73
2021/06/07 06:05:35;;;;;;;19.23;14.77;;;22.00;99.90;;;;;;5053939;28;20025;-72
2021/06/07 06:08:01;;;;;;;19.23;13.85;;;22.00;99.90;;;;;;5055699;28;20017;-73
2021/06/07 06:10:27;;;;;;;16.83;13.02;;;22.00;99.90;;;;;;5055547;28;20466;-74
2021/06/07 06:12:53;;;;;;;17.65;13.60;;;22.00;99.90;;;;;;5056270;28;20021;-74
2021/06/07 06:15:21;;;;;;;18.70;15.00;;;22.20;99.90;;;;;;5054856;28;20021;-73
2021/06/07 06:17:47;;;;;;;16.52;12.18;;;22.20;99.90;;;;;;5056445;28;20051;-73
2021/06/07 06:20:15;;;;;;;17.70;14.40;;;22.30;99.90;;;;;;5054563;28;20085;-74
2021/06/07 06:22:41;;;;;;;16.55;12.68;;;22.30;99.90;;;;;;5054694;28;20033;-72
2021/06/07 06:25:09;;;;;;;19.58;14.05;;;22.40;99.90;;;;;;5053849;28;20048;-72
2021/06/07 06:27:36;;;;;;;19.50;14.27;;;22.30;99.90;;;;;;5053535;28;20443;-73
2021/06/07 06:30:05;;;;;;;15.32;13.18;;;22.20;99.90;;;;;;5053427;28;20474;-74
2021/06/07 06:32:31;;;;;;;14.25;12.75;;;22.10;99.90;;;;;;5053337;28;20145;-72
2021/06/07 06:34:57;;;;;;;16.10;12.13;;;22.00;99.90;;;;;;5054913;28;20416;-72
2021/06/07 06:37:22;;;;;;;17.00;11.98;;;22.00;99.90;;;;;;5054631;28;20020;-73
2021/06/07 06:39:49;;;;;;;18.30;12.15;;;;;;;;;;5053259;28;20025;-73
2021/06/07 06:42:15;;;;;;;18.38;13.35;;;22.20;99.90;;;;;;5053024;28;20033;-73
2021/06/07 06:44:40;;;;;;;14.40;11.70;;;22.20;99.90;;;;;;5054634;28;20025;-72
2021/06/07 06:47:06;;;;;;;18.30;12.75;;;22.30;99.90;;;;;;5053233;28;20021;-72
2021/06/07 06:49:32;;;;;;;14.82;13.10;;;22.40;99.90;;;;;;5054497;28;20493;-73
2021/06/07 06:51:59;;;;;;;20.27;12.32;;;22.60;99.90;;;;;;5053030;28;20371;-73
2021/06/07 06:54:26;;;;;;;16.40;12.52;;;22.70;99.90;;;;;;5054350;28;20025;-72
2021/06/07 06:56:52;;;;;;;16.33;14.20;;;22.90;99.90;;;;;;5054396;28;20029;-73
2021/06/07 06:59:18;;;;;;;13.10;11.57;;;22.90;99.90;;;;;;5054063;28;20036;-72
2021/06/07 07:01:44;;;;;;;14.27;10.75;;;22.80;99.90;;;;;;5053869;28;20040;-72
2021/06/07 07:04:10;;;;;;;13.15;11.70;;;22.90;99.90;;;;;;5052813;28;20390;-73
2021/06/07 07:06:36;;;;;;;12.38;11.15;;;23.00;99.90;;;;;;5054083;28;20071;-72
2021/06/07 07:09:04;;;;;;;16.33;12.90;;;23.00;99.90;;;;;;5054076;28;20024;-72
2021/06/07 07:11:30;;;;;;;13.57;11.18;;;23.10;99.90;;;;;;5054082;28;20029;-73
2021/06/07 07:13:56;;;;;;;16.52;11.35;;;23.20;99.90;;;;;;5053835;28;20025;-77
2021/06/07 07:16:22;;;;;;;22.02;12.52;;;23.40;99.90;;;;;;5052559;28;20032;-73
2021/06/07 07:18:48;;;;;;;15.70;13.00;;;23.60;99.90;;;;;;5053877;28;20105;-74
2021/06/07 07:21:14;;;;;;;15.75;13.07;;;23.60;99.90;;;;;;5052695;28;20037;-73
2021/06/07 07:23:40;;;;;;;17.25;12.98;;;23.50;99.90;;;;;;5052461;28;20064;-73
2021/06/07 07:26:05;;;;;;;14.32;12.77;;;23.60;99.90;;;;;;5052528;28;20435;-72
2021/06/07 07:28:32;;;;;;;14.10;12.20;;;23.70;99.90;;;;;;5051639;28;20025;-75
2021/06/07 07:30:58;;;;;;;14.38;12.15;;;23.70;99.90;;;;;;5053611;28;20029;-73
2021/06/07 07:33:24;;;;;;;17.63;12.63;;;23.90;99.90;;;;;;5052344;28;20065;-73
2021/06/07 07:35:50;;;;;;;14.93;12.90;;;24.10;99.90;;;;;;5052268;28;20047;-73
2021/06/07 07:38:16;;;;;;;16.20;12.45;;;24.20;99.90;;;;;;5053441;28;20029;-72
2021/06/07 07:40:44;;;;;;;13.75;11.90;;;24.20;99.90;;;;;;5052015;28;20556;-74
2021/06/07 07:43:10;;;;;;;18.30;12.52;;;24.20;99.90;;;;;;5051941;28;20036;-73
2021/06/07 07:45:36;;;;;;;17.02;13.35;;;24.40;99.90;;;;;;5053434;28;20025;-73
2021/06/07 07:48:05;;;;;;;14.57;13.07;;;24.30;99.90;;;;;;5053127;28;20378;-72
2021/06/07 07:50:31;;;;;;;15.75;12.98;;;24.20;99.90;;;;;;5051968;28;20056;-73
2021/06/07 07:52:59;;;;;;;16.38;12.43;;;23.90;99.90;;;;;;5052664;28;20029;-73
2021/06/07 07:55:30;;;;;;;15.18;11.43;;;23.90;99.90;;;;;;5051864;28;20021;-72
2021/06/07 07:57:56;;;;;;;14.52;12.35;;;23.90;99.90;;;;;;5053045;28;20064;-72
2021/06/07 08:00:25;;;;;;;17.20;12.20;;;24.10;99.90;;;;;;5051365;28;20033;-72
2021/06/07 08:02:52;;;;;;;16.08;10.63;;;24.30;99.90;;;;;;5051319;28;20033;-72
2021/06/07 08:05:18;;;;;;;15.55;12.40;;;24.30;99.90;;;;;;5051174;28;20359;-73
2021/06/07 08:07:44;;;;;;;13.15;11.88;;;24.40;99.90;;;;;;5052822;28;20103;-73
2021/06/07 08:10:11;;;;;;;12.57;11.15;;;24.30;99.90;;;;;;5053291;28;20119;-72
2021/06/07 08:12:38;;;;;;;12.00;10.68;;;24.20;99.90;;;;;;5052859;28;20051;-75
2021/06/07 08:15:06;;;;;;;14.95;9.50;;;24.30;99.90;;;;;;5051539;28;20032;-71
2021/06/07 08:17:33;;;;;;;11.68;9.02;;;24.50;99.90;;;;;;5052518;28;20780;-73
2021/06/07 08:19:59;;;;;;;13.05;11.65;;;24.60;99.90;;;;;;5052820;28;20021;-73
2021/06/07 08:22:24;;;;;;;12.70;10.98;;;24.70;99.90;;;;;;5051020;28;20354;-72
2021/06/07 08:24:50;;;;;;;13.02;10.52;;;24.70;99.90;;;;;;5051147;28;20523;-72
2021/06/07 08:27:16;;;;;;;11.15;8.98;;;24.70;99.90;;;;;;5050641;28;20461;-73
2021/06/07 08:29:42;;;;;;;12.20;10.35;;;24.70;99.90;;;;;;5050847;28;20028;-72
2021/06/07 08:32:08;;;;;;;12.20;10.02;;;24.70;99.90;;;;;;5050621;28;20037;-73
2021/06/07 08:34:35;;;;;;;11.52;10.43;;;24.80;99.90;;;;;;5050414;28;20382;-72
2021/06/07 08:37:01;;;;;;;15.60;11.68;;;25.00;99.90;;;;;;5051057;28;20492;-72
2021/06/07 08:39:27;;;;;;;12.52;11.23;;;24.90;99.90;;;;;;5052593;28;20104;-72
2021/06/07 08:41:53;;;;;;;12.77;11.13;;;25.00;99.90;;;;;;5051260;28;20040;-73
2021/06/07 08:44:19;;;;;;;13.60;11.55;;;25.10;99.90;;;;;;5052561;28;20024;-72
2021/06/07 08:46:46;;;;;;;15.30;10.20;;;25.10;99.90;;;;;;5051370;28;20025;-73
2021/06/07 08:49:13;;;;;;;11.10;10.00;;;25.40;99.90;;;;;;5052588;28;20039;-70
2021/06/07 08:51:39;;;;;;;12.95;10.90;;;25.60;99.90;;;;;;5051150;28;20092;-70
2021/06/07 08:54:06;;;;;;;14.25;11.43;;;25.20;99.90;;;;;;5051112;28;20465;-71
2021/06/07 08:56:32;;;;;;;14.38;10.15;;;24.90;99.90;;;;;;5051066;28;20090;-70
2021/06/07 08:58:58;;;;;;;12.88;9.70;;;24.70;99.90;;;;;;5050962;28;20025;-71
2021/06/07 09:01:23;;;;;;;10.38;8.82;;;25.10;99.90;;;;;;5050966;28;20080;-72
2021/06/07 09:03:49;;;;;;;9.77;8.77;;;25.60;99.90;;;;;;5051047;28;20036;-72
2021/06/07 09:06:24;;;;;;;13.52;8.73;;;25.80;99.90;;;;;;5054226;28;20025;-70
2021/06/07 09:09:01;;;;;;;13.73;8.35;;;26.30;99.90;;;;;;5056274;28;20018;-71
2021/06/07 09:11:27;;;;;;;13.75;10.25;;;;;;;;;;5054970;28;20037;-72
2021/06/07 09:13:54;;;;;;;13.45;10.82;;;;;;;;;;5056255;28;20032;-72
2021/06/07 09:16:20;;;;;;;12.40;10.48;;;;;;;;;;5056314;28;20116;-69
2021/06/07 09:18:47;;;;;;;10.57;9.48;;;;;;;;;;5056086;28;20017;-72
2021/06/07 09:21:14;;;;;;;10.20;8.95;;;;;;;;;;5054781;28;20048;-71
2021/06/07 09:23:50;;;;;;;12.70;8.85;;;;;;;;;;5055697;28;20045;-70
2021/06/07 09:26:26;;;;;;;11.18;8.57;;;;;;;;;;5054703;28;20035;-71
2021/06/07 09:28:54;;;;;;;10.57;9.18;;;;;;;;;;5055912;28;20035;-71
2021/06/07 09:31:36;;;;;;;10.05;8.68;;;;;;;;;;5055824;28;20040;-69
2021/06/07 09:34:07;;;;;;;10.82;8.93;;;;;;;;;;5055834;28;20112;-70
2021/06/07 09:36:37;;;;;;;10.50;9.40;;;;;;;;;;5055594;28;20385;-69
2021/06/07 09:39:12;;;;;;;9.63;8.32;;;;;;;;;;5054441;28;20482;-71
2021/06/07 09:41:48;;;;;;;9.23;7.68;;;;;;;;;;5054400;28;20029;-70
2021/06/07 09:44:31;;;;;;;8.15;7.30;;;;;;;;;;5054264;28;20025;-70
2021/06/07 09:47:17;;;;;;;9.27;7.50;;;;;;;;;;5055662;28;20070;-71
2021/06/07 09:49:45;;;;;;;9.02;7.03;;;;;;;;;;5055493;28;20021;-69
2021/06/07 09:52:21;;;;;;;7.60;6.57;;;;;;;;;;5055432;28;20551;-71
2021/06/07 09:55:06;;;;;;;12.68;7.32;;;;;;;;;;5055563;28;20080;-69
2021/06/07 09:58:00;;;;;;;8.65;7.35;;;;;;;;;;5055522;28;20033;-70
2021/06/07 10:00:42;;;;;;;8.00;7.20;;;;;;;;;;5053040;28;20043;-71
2021/06/07 10:03:20;;;;;;;6.95;6.07;;;;;;;;;;5055588;28;20017;-71
2021/06/07 10:05:48;;;;;;;6.55;5.85;;;;;;;;;;5055338;28;20021;-71
2021/06/07 10:08:14;;;;;;;7.32;5.88;;;;;;;;;;5055307;28;20021;-71
2021/06/07 10:10:41;;;;;;;6.97;5.32;;;;;;;;;;5054848;28;20479;-70
2021/06/07 10:13:09;;;;;;;6.53;5.57;;;;;;;;;;5055378;28;20028;-70
2021/06/07 10:15:37;;;;;;;5.20;4.80;;;;;;;;;;5054445;28;20043;-72
2021/06/07 10:18:05;;;;;;;7.32;4.85;;;;;;;;;;5055029;28;20461;-71
2021/06/07 10:22:57;;;;;;;6.53;5.30;;;;;;;;;;5054984;28;20116;-70
2021/06/07 10:25:23;;;;;;;7.10;4.78;;;;;;;;;;5055033;28;20076;-71
2021/06/07 10:27:50;;;;;;;5.60;4.78;;;;;;;;;;5054967;28;20064;-72
2021/06/07 10:30:18;;;;;;;10.90;5.05;;;;;;;;;;5053767;28;20381;-70
2021/06/07 10:32:45;;;;;;;9.85;5.55;;;;;;;;;;5054674;28;20517;-70
2021/06/07 10:35:12;;;;;;;5.32;4.82;;;;;;;;;;5053474;28;20378;-71
2021/06/07 10:37:57;;;;;;;6.35;5.78;;;;;;;;;;5054785;28;20108;-71
2021/06/07 10:40:24;;;;;;;6.75;5.93;;;;;;;;;;5053338;28;20025;-73
2021/06/07 10:42:54;;;;;;;7.60;5.53;;;;;;;;;;5054525;28;20025;-72
2021/06/07 10:45:26;;;;;;;10.77;8.25;;;;;;;;;;5053216;28;20075;-70
2021/06/07 10:47:52;;;;;;;8.90;6.13;;;;;;;;;;5054560;28;20021;-71
2021/06/07 10:50:22;;;;;;;8.23;5.50;;;;;;;;;;5054430;28;20017;-73
2021/06/07 10:52:50;;;;;;;8.25;5.72;;;;;;;;;;5054473;28;20354;-71
2021/06/07 10:55:26;;;;;;;6.43;4.90;;;;;;;;;;5053023;28;20025;-69
2021/06/07 10:57:57;;;;;;;4.55;4.13;;;;;;;;;;5053028;28;20021;-69
2021/06/07 11:00:23;;;;;;;4.93;4.53;;;;;;;;;;5054265;28;20590;-71
2021/06/07 11:02:51;;;;;;;4.35;3.95;;;;;;;;;;5054259;28;20078;-73
2021/06/07 11:05:19;;;;;;;4.32;3.92;;;;;;;;;;5053935;28;20087;-72
2021/06/07 11:07:52;;;;;;;5.45;3.65;;;;;;;;;;5054183;28;20461;-72
2021/06/07 11:10:28;;;;;;;4.38;3.70;;;;;;;;;;5053792;28;20023;-71
2021/06/07 11:12:56;;;;;;;5.00;4.03;;;;;;;;;;5054069;28;20024;-72
2021/06/07 11:15:23;;;;;;;5.90;3.83;;;;;;;;;;5053664;28;20588;-73
2021/06/07 11:17:51;;;;;;;4.07;3.67;;;;;;;;;;5054049;28;20037;-72
2021/06/07 11:20:36;;;;;;;4.15;3.45;;;;;;;;;;5054374;28;20032;-73
2021/06/07 11:23:03;;;;;;;7.93;3.30;;;;;;;;;;5054236;28;20347;-72
2021/06/07 11:25:30;;;;;;;5.47;3.90;;;;;;;;;;5051253;28;20520;-71
2021/06/07 11:27:56;;;;;;;3.95;3.55;;;;;;;;;;5051584;28;20108;-72
2021/06/07 11:30:22;;;;;;;4.88;3.03;;;;;;;;;;5053401;28;20027;-73
2021/06/07 11:32:49;;;;;;;2.88;2.67;;;;;;;;;;5049117;28;20561;-75
2021/06/07 11:35:34;;;;;;;3.92;3.63;;;;;;;;;;5052045;28;20110;-72
2021/06/07 11:38:44;;;;;;;14.00;5.00;;;;;;;;;;5035709;28;20061;-72
2021/06/07 11:41:30;;;;;;;6.20;4.10;;;;;;;;;;4972388;28;20606;-67
2021/06/07 11:43:57;;;;;;;5.28;4.20;;;;;;;;;;4956017;28;20034;-69
2021/06/07 11:46:31;;;;;;;6.65;4.45;;;;;;;;;;4955915;28;20059;-69
2021/06/07 11:49:07;;;;;;;7.50;4.82;;;;;;;;;;4972386;28;20031;-72
2021/06/07 11:51:35;;;;;;;4.32;3.47;;;;;;;;;;4972010;28;20042;-70
2021/06/07 11:54:21;;;;;;;4.72;3.90;;;;;;;;;;4972260;28;20027;-72
2021/06/07 11:57:03;;;;;;;5.60;4.22;;;;;;;;;;4972044;28;20399;-71
2021/06/07 11:59:35;;;;;;;3.45;3.03;;;;;;;;;;4972165;28;20035;-70
2021/06/07 12:02:01;;;;;;;9.00;4.78;;;;;;;;;;4955893;28;20089;-70
2021/06/07 12:04:27;;;;;;;3.72;3.42;;;;;;;;;;4972001;28;20125;-70
2021/06/07 12:07:01;;;;;;;3.67;3.30;;;;;;;;;;4971785;28;20085;-69
2021/06/07 12:09:27;;;;;;;2.85;2.65;;;;;;;;;;4971997;28;20026;-69
2021/06/07 12:11:54;;;;;;;3.53;3.22;;;;;;;;;;5014601;28;20045;-68
2021/06/07 12:14:30;;;;;;;5.30;3.80;;;;;;;;;;5053026;28;20104;-69
2021/06/07 12:17:07;;;;;;;4.00;3.08;;;;;;;;;;5052974;28;20020;-69
2021/06/07 12:19:34;;;;;;;3.75;3.20;;;;;;;;;;5052894;28;20071;-69
2021/06/07 12:22:01;;;;;;;6.10;3.20;;;;;;;;;;5053196;28;20458;-71
2021/06/07 12:24:30;;;;;;;4.00;3.30;;;;;;;;;;5052825;28;20102;-71
2021/06/07 12:29:42;;;;;;;6.20;2.95;;;;;;;;;;5052563;28;20561;-69
2021/06/07 12:32:21;;;;;;;3.92;3.45;;;;;;;;;;5052737;28;20029;-68
2021/06/07 12:35:03;;;;;;;5.25;2.90;;;;;;;;;;5052831;28;20032;-69
2021/06/07 12:37:31;;;;;;;2.90;2.63;;;;;;;;;;5051521;28;20028;-70
2021/06/07 12:40:11;;;;;;;2.47;2.28;;;;;;;;;;5055651;28;20025;-70
2021/06/07 12:42:37;;;;;;;5.72;3.30;;;;;;;;;;5056949;28;20492;-69
2021/06/07 12:45:11;;;;;;;7.93;3.00;;;;;;;;;;5056855;28;20412;-70
2021/06/07 12:47:37;;;;;;;4.00;3.10;;;;;;;;;;5056539;28;20116;-70
2021/06/07 12:50:11;;;;;;;4.55;2.90;;;;;;;;;;5054947;28;20074;-70
2021/06/07 12:52:37;;;;;;;3.20;2.97;;;;;;;;;;5056492;28;20562;-69
2021/06/07 12:55:05;;;;;;;2.50;2.30;;;;;;;;;;5055408;28;20025;-71
2021/06/07 12:57:31;;;;;;;4.93;2.20;;;;;;;;;;5055200;28;20032;-69
2021/06/07 12:59:57;;;;;;;3.65;2.33;;;;;;;;;;5056250;28;20108;-69
2021/06/07 13:02:36;;;;;;;2.55;2.05;;;;;;;;;;5056541;28;20024;-70
2021/06/07 13:05:03;;;;;;;2.10;1.60;;;42.10;41.90;;;;;;5056466;28;20044;-68
2021/06/07 13:07:29;;;;;;;1.75;1.60;;;42.10;41.70;;;;;;5056094;28;20032;-69
2021/06/07 13:09:55;;;;;;;2.17;1.65;;;42.80;41.70;;;;;;5056369;28;20021;-68
2021/06/07 13:12:26;;;;;;;2.55;1.85;;;43.50;40.80;;;;;;5056296;28;20036;-69
2021/06/07 13:14:54;;;;;;;2.05;1.95;;;44.30;41.10;;;;;;5056176;28;20032;-69